createdAt,value
2017-09-29T00:01:57.879Z,17.70
2017-09-29T00:04:24.593Z,15.57
2017-09-29T00:06:51.306Z,17.90
2017-09-29T00:09:18.057Z,19.83
2017-09-29T00:11:44.761Z,17.70
2017-09-29T00:14:11.482Z,16.73
2017-09-29T00:16:38.252Z,15.80
2017-09-29T00:19:05.078Z,15.93
2017-09-29T00:21:31.824Z,16.63
2017-09-29T00:23:58.601Z,18.70
2017-09-29T00:26:25.328Z,16.03
2017-09-29T00:28:52.027Z,17.33
2017-09-29T00:31:18.812Z,17.33
2017-09-29T00:33:45.516Z,21.77
2017-09-29T00:36:12.286Z,17.27
2017-09-29T00:38:39.898Z,22.20
2017-09-29T00:41:06.622Z,17.50
2017-09-29T00:43:33.336Z,18.23
2017-09-29T00:46:00.114Z,18.83
2017-09-29T00:48:26.836Z,18.50
2017-09-29T00:50:53.555Z,18.67
2017-09-29T00:53:20.369Z,16.30
2017-09-29T00:55:47.075Z,17.10
2017-09-29T00:58:13.798Z,16.17
2017-09-29T01:00:40.536Z,16.70
2017-09-29T01:03:07.243Z,18.63
2017-09-29T01:05:34.023Z,16.30
2017-09-29T01:08:00.816Z,22.87
2017-09-29T01:10:27.523Z,16.07
2017-09-29T01:12:54.248Z,17.00
2017-09-29T01:15:21.027Z,16.37
2017-09-29T01:17:47.747Z,19.73
2017-09-29T01:20:14.491Z,16.20
2017-09-29T01:22:41.250Z,15.63
2017-09-29T01:25:07.991Z,21.10
2017-09-29T01:27:34.728Z,15.70
2017-09-29T01:30:01.514Z,15.83
2017-09-29T01:32:28.250Z,16.33
2017-09-29T01:34:55.002Z,16.43
2017-09-29T01:37:21.753Z,15.43
2017-09-29T01:39:48.539Z,15.93
2017-09-29T01:42:15.261Z,16.13
2017-09-29T01:44:42.050Z,16.20
2017-09-29T01:47:08.810Z,15.30
2017-09-29T01:49:35.552Z,15.83
2017-09-29T01:52:02.312Z,16.87
2017-09-29T01:54:29.052Z,15.90
2017-09-29T01:56:55.800Z,15.97
2017-09-29T01:59:22.586Z,18.57
2017-09-29T02:01:49.331Z,14.83
2017-09-29T02:04:16.086Z,13.30
2017-09-29T02:06:42.866Z,15.20
2017-09-29T02:09:09.641Z,15.43
2017-09-29T02:11:36.373Z,16.30
2017-09-29T02:14:03.143Z,16.10
2017-09-29T02:16:29.882Z,19.23
2017-09-29T02:18:56.630Z,15.33
2017-09-29T02:21:23.379Z,15.30
2017-09-29T02:23:50.127Z,16.57
2017-09-29T02:26:16.876Z,18.10
2017-09-29T02:28:43.650Z,16.73
2017-09-29T02:31:10.399Z,19.70
2017-09-29T02:33:37.128Z,15.60
2017-09-29T02:36:03.916Z,17.03
2017-09-29T02:38:30.649Z,15.47
2017-09-29T02:40:57.391Z,16.93
2017-09-29T02:43:24.185Z,15.17
2017-09-29T02:45:50.969Z,16.03
2017-09-29T02:48:17.726Z,17.00
2017-09-29T02:50:44.525Z,16.10
2017-09-29T02:53:11.275Z,16.60
2017-09-29T02:55:38.036Z,17.53
2017-09-29T02:58:05.355Z,14.70
2017-09-29T03:00:32.497Z,15.90
2017-09-29T03:03:00.438Z,19.07
2017-09-29T03:05:30.313Z,15.20
2017-09-29T03:07:57.059Z,12.93
2017-09-29T03:10:23.771Z,12.30
2017-09-29T03:12:50.543Z,17.80
2017-09-29T03:15:17.262Z,13.70
2017-09-29T03:17:43.992Z,14.83
2017-09-29T03:20:10.731Z,14.60
2017-09-29T03:22:37.478Z,15.43
2017-09-29T03:25:04.208Z,14.27
2017-09-29T03:27:30.993Z,15.53
2017-09-29T03:29:57.701Z,17.90
2017-09-29T03:32:24.452Z,14.47
2017-09-29T03:34:51.246Z,19.00
2017-09-29T03:37:17.967Z,14.33
2017-09-29T03:39:44.707Z,15.23
2017-09-29T03:42:11.448Z,16.40
2017-09-29T03:44:38.170Z,14.60
2017-09-29T03:47:04.916Z,17.27
2017-09-29T03:49:31.677Z,16.03
2017-09-29T03:51:58.803Z,15.60
2017-09-29T03:54:26.845Z,14.30
2017-09-29T03:56:54.041Z,16.23
2017-09-29T03:59:21.032Z,16.13
2017-09-29T04:01:47.751Z,15.77
2017-09-29T04:04:14.503Z,17.60
2017-09-29T04:06:41.221Z,15.77
2017-09-29T04:09:07.930Z,18.60
2017-09-29T04:11:34.706Z,17.50
2017-09-29T04:14:01.450Z,25.10
2017-09-29T04:16:28.187Z,16.03
2017-09-29T04:18:54.949Z,21.33
2017-09-29T04:21:21.680Z,21.73
2017-09-29T04:23:48.412Z,16.67
2017-09-29T04:26:15.167Z,15.20
2017-09-29T04:28:41.896Z,16.50
2017-09-29T04:31:08.606Z,16.60
2017-09-29T04:33:35.357Z,20.73
2017-09-29T04:36:02.076Z,18.57
2017-09-29T04:38:28.791Z,26.53
2017-09-29T04:40:55.555Z,19.70
2017-09-29T04:43:22.269Z,17.37
2017-09-29T04:45:48.979Z,15.90
2017-09-29T04:48:15.720Z,24.57
2017-09-29T04:50:42.437Z,19.70
2017-09-29T04:53:09.157Z,20.20
2017-09-29T04:55:35.880Z,15.77
2017-09-29T04:58:02.604Z,16.87
2017-09-29T05:00:29.313Z,16.50
2017-09-29T05:02:56.085Z,19.60
2017-09-29T05:05:22.804Z,19.90
2017-09-29T05:07:49.531Z,17.27
2017-09-29T05:10:16.281Z,16.53
2017-09-29T05:12:43.011Z,17.73
2017-09-29T05:15:09.748Z,17.80
2017-09-29T05:17:36.524Z,17.67
2017-09-29T05:20:03.289Z,22.33
2017-09-29T05:22:30.009Z,19.13
2017-09-29T05:24:56.776Z,19.00
2017-09-29T05:27:23.526Z,17.73
2017-09-29T05:29:50.267Z,15.80
2017-09-29T05:32:17.038Z,16.80
2017-09-29T05:34:43.750Z,20.67
2017-09-29T05:37:10.468Z,16.90
2017-09-29T05:39:37.237Z,17.03
2017-09-29T05:42:04.029Z,18.17
2017-09-29T05:44:30.736Z,18.50
2017-09-29T05:46:57.582Z,18.30
2017-09-29T05:49:24.295Z,18.27
2017-09-29T05:51:51.000Z,19.87
2017-09-29T05:54:17.744Z,18.63
2017-09-29T05:56:44.449Z,18.33
2017-09-29T05:59:11.158Z,20.70
2017-09-29T06:01:37.891Z,20.90
2017-09-29T06:04:04.632Z,18.47
2017-09-29T06:06:31.345Z,18.50
2017-09-29T06:08:58.147Z,33.57
2017-09-29T06:11:24.942Z,24.37
2017-09-29T06:13:51.644Z,23.00
2017-09-29T06:16:18.453Z,26.57
2017-09-29T06:18:45.191Z,34.77
2017-09-29T06:21:11.919Z,29.00
2017-09-29T06:23:38.662Z,22.87
2017-09-29T06:26:05.430Z,25.63
2017-09-29T06:28:32.198Z,23.30
2017-09-29T06:30:58.959Z,25.67
2017-09-29T06:33:25.680Z,21.80
2017-09-29T06:35:52.455Z,24.50
2017-09-29T06:38:19.227Z,23.50
2017-09-29T06:40:45.932Z,22.67
2017-09-29T06:43:12.629Z,24.60
2017-09-29T06:45:39.370Z,22.10
2017-09-29T06:48:06.093Z,22.70
2017-09-29T06:50:32.833Z,19.43
2017-09-29T06:52:59.593Z,22.50
2017-09-29T06:55:26.331Z,24.10
2017-09-29T06:57:53.035Z,22.77
2017-09-29T07:00:19.787Z,21.57
2017-09-29T07:02:46.488Z,24.23
2017-09-29T07:05:13.199Z,28.33
2017-09-29T07:07:39.917Z,25.43
2017-09-29T07:10:06.615Z,23.53
2017-09-29T07:12:33.338Z,21.63
2017-09-29T07:15:00.078Z,25.50
2017-09-29T07:17:26.808Z,21.07
2017-09-29T07:19:53.520Z,22.70
2017-09-29T07:22:20.261Z,22.60
2017-09-29T07:24:48.161Z,26.00
2017-09-29T07:27:16.183Z,23.10
2017-09-29T07:29:43.363Z,24.33
2017-09-29T07:32:11.371Z,25.50
2017-09-29T07:34:38.078Z,27.27
2017-09-29T07:37:04.848Z,21.67
2017-09-29T07:39:31.585Z,24.20
2017-09-29T07:41:58.300Z,23.80
2017-09-29T07:44:25.032Z,21.37
2017-09-29T07:46:51.763Z,25.37
2017-09-29T07:49:18.466Z,23.07
2017-09-29T07:51:45.196Z,20.70
2017-09-29T07:54:11.931Z,22.50
2017-09-29T07:56:38.632Z,18.50
2017-09-29T07:59:05.375Z,22.17
2017-09-29T08:01:32.067Z,20.93
2017-09-29T08:03:58.766Z,22.43
2017-09-29T08:06:25.508Z,18.63
2017-09-29T08:08:52.227Z,22.43
2017-09-29T08:11:18.942Z,20.13
2017-09-29T08:13:45.698Z,26.50
2017-09-29T08:16:12.398Z,20.40
2017-09-29T08:18:39.130Z,23.23
2017-09-29T08:21:05.876Z,20.87
2017-09-29T08:23:32.575Z,21.60
2017-09-29T08:25:59.291Z,23.57
2017-09-29T08:28:26.019Z,19.90
2017-09-29T08:30:52.731Z,24.50
2017-09-29T08:33:19.431Z,22.83
2017-09-29T08:35:46.168Z,19.60
2017-09-29T08:38:12.877Z,23.27
2017-09-29T08:40:39.580Z,27.07
2017-09-29T08:43:06.337Z,22.13
2017-09-29T08:45:33.056Z,24.03
2017-09-29T08:47:59.815Z,29.43
2017-09-29T08:50:26.558Z,27.03
2017-09-29T08:52:53.270Z,23.13
2017-09-29T08:55:19.995Z,25.20
2017-09-29T08:57:46.719Z,31.97
2017-09-29T09:00:13.434Z,23.43
2017-09-29T09:02:40.132Z,24.53
2017-09-29T09:05:06.867Z,24.97
2017-09-29T09:07:33.587Z,27.70
2017-09-29T09:10:00.294Z,28.87
2017-09-29T09:12:27.015Z,31.40
2017-09-29T09:14:53.713Z,27.23
2017-09-29T09:17:20.426Z,31.23
2017-09-29T09:19:47.172Z,26.17
2017-09-29T09:22:13.879Z,28.10
2017-09-29T09:24:40.601Z,27.30
2017-09-29T09:27:07.339Z,27.00
2017-09-29T09:29:34.043Z,25.77
2017-09-29T09:32:00.754Z,24.73
2017-09-29T09:34:27.479Z,22.73
2017-09-29T09:36:54.187Z,27.27
2017-09-29T09:39:20.888Z,24.37
2017-09-29T09:41:47.651Z,21.53
2017-09-29T09:44:14.356Z,21.10
2017-09-29T09:46:41.064Z,19.73
2017-09-29T09:49:07.835Z,19.80
2017-09-29T09:51:34.544Z,28.63
2017-09-29T09:54:01.245Z,20.57
2017-09-29T09:56:28.007Z,17.50
2017-09-29T09:58:54.713Z,16.40
2017-09-29T10:01:21.414Z,15.83
2017-09-29T10:03:48.161Z,15.57
2017-09-29T10:06:14.876Z,15.33
2017-09-29T10:08:41.573Z,16.43
2017-09-29T10:11:08.309Z,14.10
2017-09-29T10:13:35.026Z,10.80
2017-09-29T10:16:01.747Z,12.70
2017-09-29T10:18:28.485Z,13.20
2017-09-29T10:20:55.194Z,12.50
2017-09-29T10:23:21.896Z,11.53
2017-09-29T10:25:48.621Z,18.23
2017-09-29T10:28:15.323Z,17.00
2017-09-29T10:30:42.021Z,11.63
2017-09-29T10:33:08.767Z,14.30
2017-09-29T10:35:35.492Z,13.27
2017-09-29T10:38:02.186Z,12.33
2017-09-29T10:40:28.935Z,10.97
2017-09-29T10:42:55.660Z,12.23
2017-09-29T10:45:22.381Z,14.10
2017-09-29T10:47:49.106Z,12.47
2017-09-29T10:50:15.843Z,11.70
2017-09-29T10:52:42.550Z,14.23
2017-09-29T10:55:09.353Z,12.23
2017-09-29T10:57:36.067Z,15.80
2017-09-29T11:00:02.775Z,13.57
2017-09-29T11:02:29.506Z,15.30
2017-09-29T11:04:56.221Z,16.50
2017-09-29T11:07:22.929Z,12.17
2017-09-29T11:09:49.658Z,11.87
2017-09-29T11:12:16.381Z,15.93
2017-09-29T11:14:43.113Z,13.20
2017-09-29T11:17:09.859Z,12.47
2017-09-29T11:19:36.553Z,10.57
2017-09-29T11:22:03.247Z,12.20
2017-09-29T11:24:29.990Z,11.90
2017-09-29T11:26:57.561Z,12.37
2017-09-29T11:29:24.280Z,12.87
2017-09-29T11:31:51.003Z,13.30
2017-09-29T11:34:17.785Z,11.17
2017-09-29T11:36:44.494Z,12.93
2017-09-29T11:39:11.239Z,14.70
2017-09-29T11:41:37.965Z,13.00
2017-09-29T11:44:04.685Z,15.63
2017-09-29T11:46:31.423Z,16.77
2017-09-29T11:48:58.165Z,14.03
2017-09-29T11:51:24.962Z,10.53
2017-09-29T11:53:51.794Z,11.77
2017-09-29T11:56:18.582Z,12.93
2017-09-29T11:58:45.290Z,10.43
2017-09-29T12:01:12.012Z,12.33
2017-09-29T12:03:38.748Z,15.13
2017-09-29T12:06:05.459Z,13.00
2017-09-29T12:08:32.237Z,14.50
2017-09-29T12:10:59.028Z,11.47
2017-09-29T12:13:25.821Z,12.20
2017-09-29T12:15:52.551Z,12.20
2017-09-29T12:18:19.257Z,14.70
2017-09-29T12:20:45.962Z,12.30
2017-09-29T12:23:12.721Z,14.00
2017-09-29T12:25:39.436Z,13.37
2017-09-29T12:28:06.138Z,10.87
2017-09-29T12:30:32.891Z,10.57
2017-09-29T12:32:59.693Z,11.50
2017-09-29T12:35:26.408Z,12.13
2017-09-29T12:37:53.151Z,11.23
2017-09-29T12:40:19.873Z,10.63
2017-09-29T12:42:46.665Z,11.77
2017-09-29T12:47:39.434Z,12.00
2017-09-29T12:50:06.149Z,9.87
2017-09-29T12:52:32.891Z,11.70
2017-09-29T12:54:59.610Z,11.60
2017-09-29T12:57:26.347Z,10.37
2017-09-29T12:59:53.094Z,10.23
2017-09-29T13:02:19.817Z,13.97
2017-09-29T13:04:46.522Z,14.60
2017-09-29T13:07:13.355Z,11.90
2017-09-29T13:09:40.117Z,11.17
2017-09-29T13:12:06.829Z,9.87
2017-09-29T13:14:33.657Z,11.07
2017-09-29T13:17:00.375Z,9.90
2017-09-29T13:19:27.121Z,11.33
2017-09-29T13:21:53.870Z,11.10
2017-09-29T13:24:20.608Z,9.87
2017-09-29T13:26:47.340Z,11.17
2017-09-29T13:29:14.066Z,11.87
2017-09-29T13:31:40.765Z,10.83
2017-09-29T13:34:07.471Z,11.80
2017-09-29T13:36:34.238Z,10.27
2017-09-29T13:39:03.457Z,11.07
2017-09-29T13:41:30.297Z,13.90
2017-09-29T13:43:57.035Z,13.30
2017-09-29T13:46:23.764Z,12.33
2017-09-29T13:48:50.459Z,10.00
2017-09-29T13:51:17.206Z,11.60
2017-09-29T13:53:43.932Z,12.57
2017-09-29T13:56:10.647Z,12.93
2017-09-29T13:58:37.422Z,11.97
2017-09-29T14:01:04.133Z,12.90
2017-09-29T14:03:30.835Z,12.93
2017-09-29T14:05:57.574Z,11.77
2017-09-29T14:08:24.291Z,11.43
2017-09-29T14:10:51.001Z,11.57
2017-09-29T14:13:17.747Z,11.37
2017-09-29T14:15:44.483Z,15.60
2017-09-29T14:18:11.189Z,11.80
2017-09-29T14:20:37.925Z,11.57
2017-09-29T14:23:04.655Z,13.43
2017-09-29T14:25:31.351Z,13.10
2017-09-29T14:27:58.095Z,10.70
2017-09-29T14:30:24.827Z,11.70
2017-09-29T14:32:51.525Z,11.63
2017-09-29T14:35:18.274Z,12.40
2017-09-29T14:37:45.006Z,12.73
2017-09-29T14:40:11.703Z,12.17
2017-09-29T14:42:38.469Z,11.93
2017-09-29T14:45:05.192Z,12.00
2017-09-29T14:47:31.902Z,16.00
2017-09-29T14:49:58.678Z,14.03
2017-09-29T14:52:25.379Z,10.80
2017-09-29T14:54:52.078Z,11.73
2017-09-29T14:57:18.840Z,12.60
2017-09-29T14:59:45.537Z,11.67
2017-09-29T15:02:12.242Z,11.97
2017-09-29T15:04:38.986Z,11.23
2017-09-29T15:07:05.707Z,11.37
2017-09-29T15:09:32.423Z,12.50
2017-09-29T15:11:59.191Z,12.00
2017-09-29T15:14:25.901Z,12.83
2017-09-29T15:16:52.618Z,11.87
2017-09-29T15:19:19.362Z,13.90
2017-09-29T15:21:46.098Z,12.40
2017-09-29T15:24:12.814Z,12.33
2017-09-29T15:26:39.559Z,12.73
2017-09-29T15:29:06.257Z,12.10
2017-09-29T15:31:32.958Z,11.40
2017-09-29T15:33:59.733Z,13.90
2017-09-29T15:36:26.441Z,20.27
2017-09-29T15:38:53.142Z,14.93
2017-09-29T15:41:19.901Z,14.23
2017-09-29T15:43:46.602Z,14.00
2017-09-29T15:46:13.306Z,14.60
2017-09-29T15:48:40.053Z,16.03
2017-09-29T15:51:06.772Z,14.13
2017-09-29T15:53:33.479Z,12.30
2017-09-29T15:56:00.225Z,14.30
2017-09-29T15:58:26.946Z,13.40
2017-09-29T16:00:53.669Z,16.80
2017-09-29T16:03:20.441Z,13.93
2017-09-29T16:05:47.141Z,11.80
2017-09-29T16:08:13.840Z,14.13
2017-09-29T16:10:40.573Z,13.67
2017-09-29T16:13:07.308Z,13.57
2017-09-29T16:18:07.126Z,11.13
2017-09-29T16:20:33.841Z,11.97
2017-09-29T16:23:00.567Z,12.10
2017-09-29T16:25:27.330Z,15.83
2017-09-29T16:27:54.033Z,12.40
2017-09-29T16:30:20.753Z,14.60
2017-09-29T16:32:47.513Z,14.83
2017-09-29T16:35:14.241Z,12.57
2017-09-29T16:37:40.959Z,12.90
2017-09-29T16:40:07.719Z,13.20
2017-09-29T16:42:34.426Z,11.93
2017-09-29T16:45:01.128Z,13.30
2017-09-29T16:47:27.899Z,13.33
2017-09-29T16:49:54.611Z,11.93
2017-09-29T16:52:21.311Z,12.00
2017-09-29T16:54:48.079Z,12.33
2017-09-29T16:57:14.798Z,13.30
2017-09-29T16:59:41.496Z,11.63
2017-09-29T17:02:08.257Z,11.90
2017-09-29T17:04:34.958Z,13.13
2017-09-29T17:07:01.670Z,13.70
2017-09-29T17:09:28.447Z,11.10
2017-09-29T17:11:55.150Z,11.77
2017-09-29T17:14:21.882Z,10.83
2017-09-29T17:16:48.618Z,10.77
2017-09-29T17:19:15.314Z,10.80
2017-09-29T17:21:42.020Z,11.93
2017-09-29T17:24:08.778Z,12.80
2017-09-29T17:26:35.483Z,15.93
2017-09-29T17:29:02.202Z,12.83
2017-09-29T17:31:28.975Z,14.03
2017-09-29T17:33:55.683Z,11.57
2017-09-29T17:38:56.208Z,11.13
2017-09-29T17:47:11.824Z,17.60
2017-09-29T17:49:38.567Z,15.03
2017-09-29T17:52:05.295Z,14.70
2017-09-29T17:54:32.001Z,12.70
2017-09-29T17:56:58.796Z,14.53
2017-09-29T17:59:25.519Z,18.03
2017-09-29T18:01:52.263Z,11.83
2017-09-29T18:04:18.999Z,12.33
2017-09-29T18:06:45.717Z,12.47
2017-09-29T18:09:12.448Z,12.07
2017-09-29T18:11:39.195Z,11.53
2017-09-29T18:14:05.904Z,15.90
2017-09-29T18:16:32.627Z,14.37
2017-09-29T18:18:59.443Z,15.10
2017-09-29T18:21:26.175Z,14.00
2017-09-29T18:23:53.040Z,12.03
2017-09-29T18:26:19.840Z,11.90
2017-09-29T18:28:46.551Z,17.17
2017-09-29T18:31:13.250Z,15.83
2017-09-29T18:33:40.226Z,17.93
2017-09-29T18:36:07.263Z,11.40
2017-09-29T18:38:44.123Z,13.70
2017-09-29T18:41:21.751Z,12.80
2017-09-29T18:43:51.219Z,11.40
2017-09-29T18:46:18.012Z,18.73
2017-09-29T18:48:44.708Z,15.73
2017-09-29T18:51:11.734Z,11.97
2017-09-29T18:53:38.750Z,11.20
2017-09-29T18:56:05.508Z,12.00
2017-09-29T18:58:32.529Z,10.90
2017-09-29T19:00:59.261Z,11.00
2017-09-29T19:03:26.250Z,9.67
2017-09-29T19:05:53.041Z,12.23
2017-09-29T19:08:19.977Z,11.43
2017-09-29T19:10:46.825Z,21.27
2017-09-29T19:13:13.607Z,10.93
2017-09-29T19:15:40.336Z,14.53
2017-09-29T19:18:07.506Z,15.30
2017-09-29T19:20:38.912Z,11.37
2017-09-29T19:23:05.643Z,10.60
2017-09-29T19:25:32.376Z,11.57
2017-09-29T19:27:59.156Z,15.03
2017-09-29T19:30:26.359Z,11.80
2017-09-29T19:32:53.098Z,14.30
2017-09-29T19:35:19.879Z,11.47
2017-09-29T19:37:47.600Z,11.90
2017-09-29T19:40:14.343Z,12.53
2017-09-29T19:42:41.502Z,11.63
2017-09-29T19:45:08.272Z,12.10
2017-09-29T19:47:35.020Z,12.47
2017-09-29T19:50:01.808Z,13.20
2017-09-29T19:52:28.823Z,11.67
2017-09-29T19:54:55.955Z,17.07
2017-09-29T19:57:23.764Z,12.50
2017-09-29T19:59:51.351Z,11.30
2017-09-29T20:02:18.421Z,12.50
2017-09-29T20:04:45.223Z,11.57
2017-09-29T20:07:12.003Z,11.20
2017-09-29T20:09:38.846Z,12.27
2017-09-29T20:12:06.157Z,13.10
2017-09-29T20:14:32.892Z,12.60
2017-09-29T20:16:59.731Z,13.13
2017-09-29T20:19:26.479Z,10.63
2017-09-29T20:21:57.699Z,12.50
2017-09-29T20:24:24.490Z,13.00
2017-09-29T20:26:51.329Z,13.40
2017-09-29T20:29:18.457Z,16.33
2017-09-29T20:31:45.299Z,15.67
2017-09-29T20:34:12.070Z,20.10
2017-09-29T20:36:38.834Z,18.33
2017-09-29T20:39:05.596Z,12.63
2017-09-29T20:41:32.426Z,15.20
2017-09-29T20:43:59.194Z,14.00
2017-09-29T20:46:25.948Z,14.60
2017-09-29T20:48:52.727Z,15.60
2017-09-29T20:51:19.458Z,13.90
2017-09-29T20:53:46.232Z,15.73
2017-09-29T20:56:13.653Z,16.23
2017-09-29T20:58:40.392Z,13.53
2017-09-29T21:01:07.434Z,13.30
2017-09-29T21:03:35.047Z,14.20
2017-09-29T21:06:01.751Z,14.13
2017-09-29T21:08:28.479Z,17.37
2017-09-29T21:10:55.500Z,14.60
2017-09-29T21:13:22.492Z,17.27
2017-09-29T21:15:49.307Z,14.73
2017-09-29T21:18:16.110Z,16.67
2017-09-29T21:20:42.944Z,15.03
2017-09-29T21:23:09.687Z,14.70
2017-09-29T21:25:36.448Z,21.37
2017-09-29T21:28:03.197Z,15.13
2017-09-29T21:30:29.939Z,17.23
2017-09-29T21:33:01.115Z,15.40
2017-09-29T21:35:27.850Z,16.73
2017-09-29T21:37:54.584Z,19.10
2017-09-29T21:40:22.681Z,21.53
2017-09-29T21:42:49.471Z,19.90
2017-09-29T21:45:20.408Z,16.77
2017-09-29T21:47:47.176Z,15.30
2017-09-29T21:50:13.887Z,16.27
2017-09-29T21:52:40.583Z,17.53
2017-09-29T21:55:07.319Z,17.13
2017-09-29T21:57:34.023Z,17.43
2017-09-29T22:00:00.728Z,16.90
2017-09-29T22:02:27.498Z,15.70
2017-09-29T22:04:54.214Z,20.00
2017-09-29T22:07:20.939Z,16.87
2017-09-29T22:09:47.740Z,15.13
2017-09-29T22:12:14.445Z,17.00
2017-09-29T22:14:41.172Z,17.90
2017-09-29T22:17:07.899Z,16.87
2017-09-29T22:19:34.605Z,17.33
2017-09-29T22:22:01.312Z,19.40
2017-09-29T22:24:28.077Z,17.33
2017-09-29T22:26:54.798Z,16.00
2017-09-29T22:29:21.506Z,15.87
2017-09-29T22:31:48.266Z,15.00
2017-09-29T22:34:14.965Z,15.37
2017-09-29T22:36:41.682Z,18.40
2017-09-29T22:39:08.409Z,17.80
2017-09-29T22:41:35.178Z,17.00
2017-09-29T22:44:01.886Z,16.73
2017-09-29T22:46:28.624Z,19.83
2017-09-29T22:48:55.326Z,16.47
2017-09-29T22:51:22.032Z,16.60
2017-09-29T22:53:48.745Z,17.07
2017-09-29T22:56:15.449Z,18.17
2017-09-29T22:58:42.180Z,17.47
2017-09-29T23:01:08.909Z,16.23
2017-09-29T23:03:35.621Z,15.70
2017-09-29T23:06:02.330Z,16.23
2017-09-29T23:08:29.057Z,17.87
2017-09-29T23:10:55.750Z,19.80
2017-09-29T23:13:22.462Z,21.57
2017-09-29T23:15:49.193Z,17.03
2017-09-29T23:18:15.904Z,15.67
2017-09-29T23:20:42.613Z,16.43
2017-09-29T23:23:09.364Z,17.23
2017-09-29T23:25:36.076Z,20.50
2017-09-29T23:28:02.775Z,16.30
2017-09-29T23:30:29.512Z,16.20
2017-09-29T23:32:56.215Z,16.50
2017-09-29T23:35:22.923Z,16.43
2017-09-29T23:37:49.668Z,17.00
2017-09-29T23:40:16.362Z,16.93
2017-09-29T23:42:43.066Z,20.40
2017-09-29T23:45:09.830Z,15.70
2017-09-29T23:47:36.607Z,16.87
2017-09-29T23:50:03.330Z,15.10
2017-09-29T23:52:30.055Z,15.03
2017-09-29T23:54:56.776Z,24.00
2017-09-29T23:57:23.507Z,15.17
2017-09-29T23:59:50.251Z,15.03
